createdAt,value
2019-06-07T00:00:27.358Z,150871.30
2019-06-07T00:02:35.559Z,150881.48
2019-06-07T00:05:07.728Z,150882.75
2019-06-07T00:07:36.081Z,150889.09
2019-06-07T00:10:06.899Z,150861.11
2019-06-07T00:12:35.568Z,150864.94
2019-06-07T00:15:05.380Z,150868.77
2019-06-07T00:17:33.807Z,150868.77
2019-06-07T00:20:02.237Z,150850.91
2019-06-07T00:22:33.426Z,150848.39
2019-06-07T00:25:00.904Z,150843.30
2019-06-07T00:27:29.411Z,150863.67
2019-06-07T00:29:57.895Z,150847.08
2019-06-07T00:32:26.301Z,150840.72
2019-06-07T00:34:54.760Z,150856.00
2019-06-07T00:37:25.517Z,150853.48
2019-06-07T00:40:13.227Z,150848.39
2019-06-07T00:42:24.263Z,150852.17
2019-06-07T00:44:53.104Z,150853.48
2019-06-07T00:47:23.696Z,150852.17
2019-06-07T00:49:51.745Z,150844.56
2019-06-07T00:53:11.604Z,150848.39
2019-06-07T00:54:50.478Z,150820.34
2019-06-07T00:57:19.866Z,150822.91
2019-06-07T00:59:49.134Z,150819.08
2019-06-07T01:02:19.224Z,150825.44
2019-06-07T01:04:47.919Z,150808.89
2019-06-07T01:07:18.354Z,150811.47
2019-06-07T01:09:46.463Z,150810.20
2019-06-07T01:12:19.487Z,150792.34
2019-06-07T01:14:45.146Z,150791.09
2019-06-07T01:17:29.124Z,150784.73
2019-06-07T01:19:46.800Z,150766.88
2019-06-07T01:22:16.476Z,150770.72
2019-06-07T01:24:45.397Z,150765.63
2019-06-07T01:27:13.903Z,150766.88
2019-06-07T01:29:42.359Z,150763.09
2019-06-07T01:32:10.798Z,150766.88
2019-06-07T01:34:39.259Z,150755.44
2019-06-07T01:37:07.749Z,150746.56
2019-06-07T01:39:36.208Z,150728.70
2019-06-07T01:42:04.799Z,150723.61
2019-06-07T01:44:33.376Z,150713.38
2019-06-07T01:47:01.886Z,150707.02
2019-06-07T01:49:30.370Z,150701.92
2019-06-07T01:51:58.781Z,150694.31
2019-06-07T01:54:52.190Z,150695.58
2019-06-07T01:56:57.402Z,150682.88
2019-06-07T01:59:28.457Z,150671.37
2019-06-07T02:01:55.965Z,150663.75
2019-06-07T02:04:27.355Z,150631.95
2019-06-07T02:06:54.574Z,150628.13
2019-06-07T02:09:23.572Z,150581.03
2019-06-07T02:11:53.180Z,150514.91
2019-06-07T02:14:25.353Z,150511.08
2019-06-07T02:16:51.821Z,150530.17
2019-06-07T02:19:21.870Z,150525.09
2019-06-07T02:21:50.653Z,150536.53
2019-06-07T02:24:21.312Z,150530.17
2019-06-07T02:26:49.323Z,150537.78
2019-06-07T02:29:17.760Z,150522.52
2019-06-07T02:31:46.201Z,150522.52
2019-06-07T02:34:14.635Z,150512.39
2019-06-07T02:36:43.105Z,150492.03
2019-06-07T02:39:11.588Z,150499.64
2019-06-07T02:41:40.642Z,150486.94
2019-06-07T02:44:09.082Z,150492.03
2019-06-07T02:46:46.594Z,150480.59
2019-06-07T02:49:07.679Z,150472.94
2019-06-07T02:51:41.664Z,150466.58
2019-06-07T02:54:06.383Z,150458.92
2019-06-07T02:56:48.810Z,150458.92
2019-06-07T02:59:05.202Z,150442.39
2019-06-07T03:01:41.172Z,150432.22
2019-06-07T03:04:05.904Z,150437.31
2019-06-07T03:06:39.516Z,150418.27
2019-06-07T03:09:07.862Z,150420.78
2019-06-07T03:11:39.371Z,150419.53
2019-06-07T03:14:09.254Z,150417.00
2019-06-07T03:16:40.198Z,150419.53
2019-06-07T03:19:10.391Z,150410.61
2019-06-07T03:21:41.639Z,150390.25
2019-06-07T03:24:10.465Z,150390.25
2019-06-07T03:27:30.524Z,150380.08
2019-06-07T03:29:09.221Z,150360.98
2019-06-07T03:31:43.436Z,150371.16
2019-06-07T03:34:07.812Z,150363.56
2019-06-07T03:36:39.222Z,150355.91
2019-06-07T03:39:06.899Z,150354.64
2019-06-07T03:41:43.864Z,150346.98
2019-06-07T03:44:05.490Z,150349.56
2019-06-07T03:46:36.214Z,150346.98
2019-06-07T03:49:04.176Z,150339.38
2019-06-07T03:51:34.887Z,150338.13
2019-06-07T03:54:02.761Z,150339.38
2019-06-07T03:56:32.914Z,150346.98
2019-06-07T03:59:01.527Z,150343.20
2019-06-07T04:01:30.291Z,150334.30
2019-06-07T04:04:00.117Z,150346.98
2019-06-07T04:06:31.003Z,150352.06
2019-06-07T04:08:58.696Z,150357.16
2019-06-07T04:11:27.807Z,150364.81
2019-06-07T04:13:56.252Z,150339.38
2019-06-07T04:16:24.714Z,150339.38
2019-06-07T04:18:53.139Z,150353.38
2019-06-07T04:21:21.581Z,150352.06
2019-06-07T04:23:50.024Z,150357.16
2019-06-07T04:26:18.447Z,150372.42
2019-06-07T04:31:17.044Z,150394.03
2019-06-07T04:33:45.505Z,150397.86
2019-06-07T04:36:14.323Z,150413.17
2019-06-07T04:38:43.895Z,150420.78
2019-06-07T04:41:13.826Z,150450.06
2019-06-07T04:43:43.057Z,150457.66
2019-06-07T04:46:13.083Z,150480.59
2019-06-07T04:48:44.000Z,150485.63
2019-06-07T04:51:14.475Z,150489.45
2019-06-07T04:53:43.515Z,150502.20
2019-06-07T04:56:12.238Z,150522.52
2019-06-07T04:58:41.475Z,150545.45
2019-06-07T05:01:26.333Z,150561.98
2019-06-07T05:03:44.158Z,150582.34
2019-06-07T05:06:10.697Z,150626.86
2019-06-07T05:08:43.632Z,150657.41
2019-06-07T05:11:09.467Z,150708.28
2019-06-07T05:13:40.419Z,150696.84
2019-06-07T05:16:08.227Z,150703.19
2019-06-07T05:18:40.222Z,150721.09
2019-06-07T05:21:06.790Z,150719.78
2019-06-07T05:24:05.252Z,150751.59
2019-06-07T05:26:05.394Z,150764.36
2019-06-07T05:28:35.118Z,150721.09
2019-06-07T05:31:07.376Z,150764.36
2019-06-07T05:33:36.594Z,150807.63
2019-06-07T05:36:04.676Z,150840.72
2019-06-07T05:38:33.502Z,150896.77
2019-06-07T05:41:02.029Z,150917.16
2019-06-07T05:43:35.032Z,151070.02
2019-06-07T05:46:01.134Z,151182.16
2019-06-07T05:48:29.566Z,151152.86
2019-06-07T05:50:58.109Z,151393.84
2019-06-07T05:53:26.509Z,151330.09
2019-06-07T05:55:54.938Z,151507.34
2019-06-07T05:58:23.373Z,151562.28
2019-06-07T06:00:51.816Z,151799.70
2019-06-07T06:03:20.240Z,152007.91
2019-06-07T06:05:54.987Z,152232.86
2019-06-07T06:08:18.910Z,152139.53
2019-06-07T06:10:48.836Z,151766.47
2019-06-07T06:13:17.442Z,151548.23
2019-06-07T06:16:00.922Z,151562.28
2019-06-07T06:18:16.134Z,151761.36
2019-06-07T06:23:14.703Z,152047.55
2019-06-07T06:25:50.884Z,151825.25
2019-06-07T06:28:15.889Z,151715.39
2019-06-07T06:30:47.298Z,151709.02
2019-06-07T06:33:33.133Z,151793.33
2019-06-07T06:35:50.490Z,151627.34
2019-06-07T06:38:16.961Z,151749.88
2019-06-07T06:40:48.924Z,151835.47
2019-06-07T06:43:16.184Z,151835.47
2019-06-07T06:45:47.818Z,151850.80
2019-06-07T06:48:17.430Z,151717.97
2019-06-07T06:50:48.998Z,151717.97
2019-06-07T06:53:15.437Z,151543.13
2019-06-07T06:55:47.867Z,151682.22
2019-06-07T06:58:14.066Z,151761.36
2019-06-07T07:00:53.567Z,151904.42
2019-06-07T07:03:56.546Z,151873.77
2019-06-07T07:05:51.980Z,151794.59
2019-06-07T07:08:18.603Z,151747.30
2019-06-07T07:10:51.062Z,151577.59
2019-06-07T07:13:18.283Z,151580.13
2019-06-07T07:15:50.021Z,151592.88
2019-06-07T07:18:16.946Z,151707.75
2019-06-07T07:20:47.573Z,151597.97
2019-06-07T07:23:15.472Z,151678.37
2019-06-07T07:25:50.635Z,151666.89
2019-06-07T07:28:14.062Z,151597.97
2019-06-07T07:30:55.412Z,151710.28
2019-06-07T07:33:23.989Z,151881.41
2019-06-07T07:36:17.645Z,152036.00
2019-06-07T07:38:22.488Z,152036.00
2019-06-07T07:41:09.034Z,152148.44
2019-06-07T07:43:21.355Z,151901.84
2019-06-07T07:45:57.255Z,151790.75
2019-06-07T07:48:20.335Z,151922.28
2019-06-07T07:50:53.175Z,151800.97
2019-06-07T07:53:18.887Z,151729.44
2019-06-07T07:55:51.073Z,151729.44
2019-06-07T07:58:17.505Z,151871.23
2019-06-07T08:00:52.936Z,151926.13
2019-06-07T08:03:16.084Z,151863.53
2019-06-07T08:05:45.643Z,151792.06
2019-06-07T08:08:14.655Z,151799.70
2019-06-07T08:10:43.143Z,151817.61
2019-06-07T08:13:24.474Z,151817.61
2019-06-07T08:15:41.892Z,151757.52
2019-06-07T08:18:10.453Z,151863.53
2019-06-07T08:20:38.909Z,151914.64
2019-06-07T08:23:07.432Z,151914.64
2019-06-07T08:25:35.853Z,151786.95
2019-06-07T08:28:04.732Z,151666.89
2019-06-07T08:30:55.406Z,151840.56
2019-06-07T08:33:24.797Z,151914.64
2019-06-07T08:38:25.004Z,151841.84
2019-06-07T08:40:35.476Z,151986.16
2019-06-07T08:43:18.431Z,151968.28
2019-06-07T08:45:34.496Z,151935.09
2019-06-07T08:48:09.251Z,151935.09
2019-06-07T08:50:33.086Z,151906.95
2019-06-07T08:53:11.498Z,151984.89
2019-06-07T08:55:31.680Z,151843.09
2019-06-07T08:58:05.785Z,151951.69
2019-06-07T09:00:45.660Z,151945.27
2019-06-07T09:03:06.418Z,151993.84
2019-06-07T09:05:30.876Z,152056.45
2019-06-07T09:08:23.466Z,151929.97
2019-06-07T09:10:29.438Z,152029.63
2019-06-07T09:13:03.001Z,151998.91
2019-06-07T09:15:28.044Z,152023.25
2019-06-07T09:18:34.753Z,151940.16
2019-06-07T09:20:37.022Z,151995.11
2019-06-07T09:23:07.333Z,151967.02
2019-06-07T09:25:29.966Z,151878.88
2019-06-07T09:28:06.719Z,152041.13
2019-06-07T09:30:40.467Z,152041.13
2019-06-07T09:33:09.763Z,151974.66
2019-06-07T09:35:40.324Z,152021.98
2019-06-07T09:38:23.681Z,151978.50
2019-06-07T09:40:39.544Z,152032.20
2019-06-07T09:43:58.990Z,151996.38
2019-06-07T09:45:38.388Z,151917.17
2019-06-07T09:48:13.633Z,152025.83
2019-06-07T09:50:37.134Z,151940.16
2019-06-07T09:53:18.966Z,151951.69
2019-06-07T09:55:36.299Z,152090.97
2019-06-07T09:58:47.742Z,152083.28
2019-06-07T10:00:41.017Z,152088.41
2019-06-07T10:03:17.755Z,152093.52
2019-06-07T10:05:36.029Z,152129.30
2019-06-07T10:08:38.027Z,152157.41
2019-06-07T10:13:04.136Z,152198.31
2019-06-07T10:15:32.839Z,152144.66
2019-06-07T10:18:01.268Z,152208.55
2019-06-07T10:20:29.833Z,152066.69
2019-06-07T10:22:59.571Z,152102.47
2019-06-07T10:25:28.250Z,152089.66
2019-06-07T10:27:56.749Z,152156.14
2019-06-07T10:30:25.555Z,152089.66
2019-06-07T10:32:53.915Z,152163.78
2019-06-07T10:35:22.405Z,152117.81
2019-06-07T10:37:50.826Z,152134.42
2019-06-07T10:40:19.413Z,152073.06
2019-06-07T10:42:47.848Z,152189.36
2019-06-07T10:45:17.315Z,152195.73
2019-06-07T10:47:45.756Z,152128.05
2019-06-07T10:50:17.704Z,152180.41
2019-06-07T10:52:46.107Z,152195.73
2019-06-07T10:55:15.083Z,152191.94
2019-06-07T10:57:43.504Z,152223.94
2019-06-07T11:00:13.620Z,152088.41
2019-06-07T11:02:42.258Z,152152.30
2019-06-07T11:05:12.292Z,152231.59
2019-06-07T11:07:41.186Z,152236.70
2019-06-07T11:10:16.680Z,152392.69
2019-06-07T11:12:40.382Z,152361.97
2019-06-07T11:15:11.031Z,152318.52
2019-06-07T11:17:39.854Z,152331.33
2019-06-07T11:20:10.352Z,152294.25
2019-06-07T11:22:38.842Z,152338.97
2019-06-07T11:25:09.087Z,152319.83
2019-06-07T11:27:37.490Z,152392.69
2019-06-07T11:30:10.547Z,152359.44
2019-06-07T11:32:39.481Z,152300.63
2019-06-07T11:35:11.559Z,152337.70
2019-06-07T11:37:39.933Z,152309.59
2019-06-07T11:40:27.806Z,152369.67
2019-06-07T11:42:41.119Z,152340.25
2019-06-07T11:45:12.723Z,152277.63
2019-06-07T11:47:40.841Z,152338.97
2019-06-07T11:50:09.912Z,152244.36
2019-06-07T11:52:39.290Z,152239.25
2019-06-07T11:55:09.483Z,152305.75
2019-06-07T11:57:39.255Z,152336.44
2019-06-07T12:00:13.582Z,152446.44
2019-06-07T12:02:41.997Z,152431.09
2019-06-07T12:05:14.853Z,152441.33
2019-06-07T12:07:41.004Z,152436.20
2019-06-07T12:10:10.780Z,152483.53
2019-06-07T12:12:39.330Z,152445.17
2019-06-07T12:15:09.089Z,152443.91
2019-06-07T12:17:37.692Z,152464.37
2019-06-07T12:20:09.334Z,152445.17
2019-06-07T12:22:38.097Z,152440.06
2019-06-07T12:25:07.350Z,152424.66
2019-06-07T12:27:35.805Z,152413.16
2019-06-07T12:30:09.957Z,152475.88
2019-06-07T12:32:37.158Z,152431.09
2019-06-07T12:35:08.846Z,152459.25
2019-06-07T12:37:43.838Z,152514.25
2019-06-07T12:40:08.484Z,152481.00
2019-06-07T12:42:37.793Z,152520.62
2019-06-07T12:45:07.134Z,152575.63
2019-06-07T12:47:35.582Z,152584.59
2019-06-07T12:50:06.342Z,152515.52
2019-06-07T12:52:34.763Z,152552.61
2019-06-07T12:55:04.619Z,152552.61
2019-06-07T12:57:33.156Z,152569.25
2019-06-07T13:00:01.620Z,152560.31
2019-06-07T13:02:30.065Z,152592.31
2019-06-07T13:04:58.479Z,152592.31
2019-06-07T13:07:27.952Z,152620.44
2019-06-07T13:09:56.527Z,152625.56
2019-06-07T13:12:24.938Z,152676.78
2019-06-07T13:14:53.362Z,152658.88
2019-06-07T13:17:22.286Z,152638.39
2019-06-07T13:19:50.991Z,152601.23
2019-06-07T13:22:20.401Z,152651.22
2019-06-07T13:24:48.964Z,152674.23
2019-06-07T13:27:18.304Z,152667.84
2019-06-07T13:29:47.051Z,152651.22
2019-06-07T13:32:15.723Z,152642.25
2019-06-07T13:34:44.283Z,152630.69
2019-06-07T13:37:12.831Z,152602.50
2019-06-07T13:39:41.333Z,152602.50
2019-06-07T13:42:09.764Z,152621.72
2019-06-07T13:44:38.267Z,152616.59
2019-06-07T13:47:06.691Z,152612.73
2019-06-07T13:49:35.111Z,152639.66
2019-06-07T13:52:03.529Z,152684.47
2019-06-07T13:54:31.949Z,152702.38
2019-06-07T13:57:02.524Z,152710.09
2019-06-07T13:59:30.653Z,152676.78
2019-06-07T14:01:59.076Z,152674.23
2019-06-07T14:04:28.994Z,152676.78
2019-06-07T14:06:57.521Z,152704.97
2019-06-07T14:09:27.467Z,152699.84
2019-06-07T14:11:56.288Z,152701.11
2019-06-07T14:14:26.981Z,152721.59
2019-06-07T14:16:55.585Z,152715.16
2019-06-07T14:19:24.488Z,152722.88
2019-06-07T14:21:53.262Z,152706.23
2019-06-07T14:24:22.934Z,152717.75
2019-06-07T14:27:06.105Z,152727.98
2019-06-07T14:29:36.550Z,152719.02
2019-06-07T14:32:06.728Z,152727.98
2019-06-07T14:34:35.546Z,152725.41
2019-06-07T14:37:04.745Z,152729.25
2019-06-07T14:39:33.598Z,152770.23
2019-06-07T14:42:08.975Z,152745.89
2019-06-07T14:44:33.740Z,152763.84
2019-06-07T14:47:02.340Z,152751.02
2019-06-07T14:49:30.765Z,152756.14
2019-06-07T14:51:59.189Z,152798.39
2019-06-07T14:54:31.439Z,152760.00
2019-06-07T14:56:57.801Z,152825.27
2019-06-07T14:59:26.335Z,152825.27
2019-06-07T15:01:55.220Z,152836.83
2019-06-07T15:04:23.744Z,152825.27
2019-06-07T15:06:52.188Z,152807.36
2019-06-07T15:09:20.621Z,152820.14
2019-06-07T15:11:49.046Z,152830.44
2019-06-07T15:14:17.478Z,152824.00
2019-06-07T15:16:45.911Z,152815.03
2019-06-07T15:19:14.336Z,152848.34
2019-06-07T15:21:42.800Z,152858.59
2019-06-07T15:24:11.306Z,152873.97
2019-06-07T15:26:39.734Z,152858.59
2019-06-07T15:29:08.197Z,152827.91
2019-06-07T15:31:37.195Z,152843.22
2019-06-07T15:34:06.809Z,152843.22
2019-06-07T15:36:36.326Z,152863.72
2019-06-07T15:39:07.226Z,152881.67
2019-06-07T15:41:37.376Z,152884.22
2019-06-07T15:44:06.207Z,152898.31
2019-06-07T15:46:35.659Z,152870.11
2019-06-07T15:49:04.985Z,152902.13
2019-06-07T15:51:34.469Z,152905.97
2019-06-07T15:54:03.105Z,152902.13
2019-06-07T15:56:32.565Z,152889.34
2019-06-07T15:59:01.119Z,152905.97
2019-06-07T16:01:29.559Z,152904.70
2019-06-07T16:03:58.071Z,152888.06
2019-06-07T16:06:26.439Z,152886.80
2019-06-07T16:08:54.888Z,152923.89
2019-06-07T16:11:23.333Z,152920.09
2019-06-07T16:13:51.735Z,152913.69
2019-06-07T16:16:20.204Z,152904.70
2019-06-07T16:18:48.653Z,152925.20
2019-06-07T16:21:17.122Z,152925.20
2019-06-07T16:23:45.633Z,152923.89
2019-06-07T16:26:14.073Z,152920.09
2019-06-07T16:28:42.593Z,152904.70
2019-06-07T16:31:11.010Z,152899.59
2019-06-07T16:33:39.467Z,152897.00
2019-06-07T16:36:07.878Z,152889.34
2019-06-07T16:38:36.382Z,152898.31
2019-06-07T16:41:05.373Z,152893.19
2019-06-07T16:43:33.810Z,152889.34
2019-06-07T16:46:02.244Z,152899.59
2019-06-07T16:48:30.677Z,152907.25
2019-06-07T16:50:59.165Z,152893.19
2019-06-07T16:53:27.643Z,152879.09
2019-06-07T16:55:56.108Z,152873.97
2019-06-07T16:58:24.563Z,152889.34
2019-06-07T17:00:53.511Z,152879.09
2019-06-07T17:03:21.928Z,152854.78
2019-06-07T17:05:50.668Z,152894.47
2019-06-07T17:08:19.439Z,152879.09
2019-06-07T17:10:49.092Z,152876.56
2019-06-07T17:13:32.423Z,152858.59
2019-06-07T17:15:48.979Z,152859.91
2019-06-07T17:18:17.510Z,152863.72
2019-06-07T17:20:47.322Z,152863.72
2019-06-07T17:23:16.118Z,152862.45
2019-06-07T17:25:45.458Z,152847.08
2019-06-07T17:28:14.494Z,152856.06
2019-06-07T17:30:43.992Z,152850.94
2019-06-07T17:33:12.631Z,152844.53
2019-06-07T17:35:42.218Z,152847.08
2019-06-07T17:38:10.624Z,152830.44
2019-06-07T17:40:39.129Z,152820.14
2019-06-07T17:43:07.569Z,152818.88
2019-06-07T17:45:36.092Z,152817.61
2019-06-07T17:48:04.572Z,152817.61
2019-06-07T17:50:32.963Z,152817.61
2019-06-07T17:53:01.405Z,152840.69
2019-06-07T17:55:29.910Z,152824.00
2019-06-07T17:57:58.351Z,152799.66
2019-06-07T18:00:31.331Z,152811.17
2019-06-07T18:02:59.972Z,152794.53
2019-06-07T18:05:28.421Z,152799.66
2019-06-07T18:07:58.803Z,152804.78
2019-06-07T18:10:36.383Z,152792.00
2019-06-07T18:13:06.367Z,152762.53
2019-06-07T18:15:40.543Z,152747.16
2019-06-07T18:18:09.681Z,152761.25
2019-06-07T18:20:38.199Z,152770.23
2019-06-07T18:23:07.119Z,152761.25
2019-06-07T18:25:35.667Z,152767.66
2019-06-07T18:30:31.821Z,152753.59
2019-06-07T18:33:00.406Z,152742.03
2019-06-07T18:35:28.909Z,152743.34
2019-06-07T18:37:57.323Z,152743.34
2019-06-07T18:40:25.823Z,152720.28
2019-06-07T18:42:55.259Z,152721.59
2019-06-07T18:45:23.731Z,152706.23
2019-06-07T18:47:53.464Z,152715.16
2019-06-07T18:50:22.231Z,152689.59
2019-06-07T18:52:50.920Z,152684.47
2019-06-07T18:55:20.877Z,152666.53
2019-06-07T18:57:50.195Z,152661.41
2019-06-07T19:00:21.201Z,152664.00
2019-06-07T19:02:49.791Z,152647.37
2019-06-07T19:05:18.823Z,152649.91
2019-06-07T19:07:48.390Z,152630.69
2019-06-07T19:10:19.554Z,152634.53
2019-06-07T19:12:48.932Z,152616.59
2019-06-07T19:15:18.795Z,152589.72
2019-06-07T19:17:47.282Z,152576.94
2019-06-07T19:20:16.848Z,152555.20
2019-06-07T19:22:45.353Z,152546.22
2019-06-07T19:25:14.876Z,152537.25
2019-06-07T19:27:43.326Z,152537.25
2019-06-07T19:30:13.354Z,152532.14
2019-06-07T19:32:41.783Z,152520.62
2019-06-07T19:35:11.118Z,152521.91
2019-06-07T19:37:39.549Z,152507.86
2019-06-07T19:40:09.113Z,152510.41
2019-06-07T19:42:37.610Z,152510.41
2019-06-07T19:45:29.018Z,152507.86
2019-06-07T19:47:38.206Z,152515.52
2019-06-07T19:50:07.848Z,152496.36
2019-06-07T19:52:36.470Z,152486.12
2019-06-07T19:55:09.844Z,152468.19
2019-06-07T19:57:37.187Z,152463.06
2019-06-07T20:00:13.584Z,152440.06
2019-06-07T20:02:37.371Z,152431.09
2019-06-07T20:05:08.814Z,152433.67
2019-06-07T20:07:37.267Z,152419.53
2019-06-07T20:10:09.140Z,152425.92
2019-06-07T20:12:37.663Z,152417.00
2019-06-07T20:15:27.695Z,152418.27
2019-06-07T20:17:40.706Z,152415.69
2019-06-07T20:20:10.160Z,152405.50
2019-06-07T20:22:38.657Z,152408.03
2019-06-07T20:25:07.519Z,152405.50
2019-06-07T20:27:36.006Z,152397.80
2019-06-07T20:30:07.086Z,152397.80
2019-06-07T20:32:35.516Z,152393.95
2019-06-07T20:35:06.001Z,152417.00
2019-06-07T20:37:34.506Z,152454.14
2019-06-07T20:40:21.779Z,152481.00
2019-06-07T20:42:33.937Z,152565.39
2019-06-07T20:45:03.843Z,152507.86
2019-06-07T20:47:32.637Z,152445.17
2019-06-07T20:50:02.387Z,152393.95
2019-06-07T20:52:30.878Z,152367.09
2019-06-07T20:55:00.569Z,152374.80
2019-06-07T20:57:29.226Z,152327.47
2019-06-07T20:59:58.814Z,152028.36
2019-06-07T21:02:27.459Z,151754.98
2019-06-07T21:04:55.882Z,151660.52
2019-06-07T21:07:24.314Z,151498.44
2019-06-07T21:09:52.745Z,151515.03
2019-06-07T21:12:21.168Z,151398.94
2019-06-07T21:14:49.584Z,151333.92
2019-06-07T21:17:18.036Z,151319.88
2019-06-07T21:19:46.466Z,151261.19
2019-06-07T21:22:14.893Z,151265.03
2019-06-07T21:24:43.348Z,151257.34
2019-06-07T21:27:11.751Z,151235.69
2019-06-07T21:29:40.250Z,151135.03
2019-06-07T21:32:09.605Z,151164.33
2019-06-07T21:34:38.297Z,151149.03
2019-06-07T21:37:07.892Z,151108.23
2019-06-07T21:39:36.535Z,151075.13
2019-06-07T21:42:06.046Z,151077.69
2019-06-07T21:44:34.677Z,151098.09
2019-06-07T21:47:04.206Z,151071.33
2019-06-07T21:49:32.876Z,151059.83
2019-06-07T21:52:02.477Z,151054.72
2019-06-07T21:54:31.188Z,151029.28
2019-06-07T21:56:59.627Z,150996.08
2019-06-07T21:59:28.039Z,150970.64
2019-06-07T22:01:56.479Z,150978.27
2019-06-07T22:04:24.940Z,151024.19
2019-06-07T22:06:53.358Z,151014.00
2019-06-07T22:09:21.843Z,150956.61
2019-06-07T22:11:50.267Z,150917.16
2019-06-07T22:14:18.680Z,150903.13
2019-06-07T22:16:47.169Z,150894.20
2019-06-07T22:19:15.590Z,150849.66
2019-06-07T22:21:44.016Z,150845.81
2019-06-07T22:24:13.111Z,150861.11
2019-06-07T22:26:41.617Z,150828.00
2019-06-07T22:29:10.313Z,150830.53
2019-06-07T22:31:38.970Z,150824.17
2019-06-07T22:34:08.681Z,150830.53
2019-06-07T22:36:37.305Z,150854.75
2019-06-07T22:39:07.609Z,150833.09
2019-06-07T22:41:36.280Z,150817.83
2019-06-07T22:44:04.745Z,150802.53
2019-06-07T22:46:37.686Z,150834.38
2019-06-07T22:49:05.049Z,150825.44
2019-06-07T22:51:33.455Z,150808.89
2019-06-07T22:54:01.938Z,150815.25
2019-06-07T22:56:40.817Z,150808.89
2019-06-07T22:59:13.652Z,150774.55
2019-06-07T23:01:39.402Z,150771.97
2019-06-07T23:04:08.403Z,150794.92
2019-06-07T23:06:37.235Z,150797.44
2019-06-07T23:09:07.280Z,150792.34
2019-06-07T23:11:35.702Z,150792.34
2019-06-07T23:14:04.388Z,150764.36
2019-06-07T23:16:32.852Z,150783.42
2019-06-07T23:19:01.263Z,150791.09
2019-06-07T23:21:30.498Z,150792.34
2019-06-07T23:23:59.063Z,150782.16
2019-06-07T23:26:27.448Z,150789.83
2019-06-07T23:28:56.591Z,150789.83
2019-06-07T23:31:25.016Z,150793.61
2019-06-07T23:33:53.511Z,150794.92
2019-06-07T23:36:21.956Z,150760.53
2019-06-07T23:38:50.370Z,150783.42
2019-06-07T23:41:20.390Z,150774.55
2019-06-07T23:43:48.959Z,150783.42
2019-06-07T23:46:17.509Z,150783.42
2019-06-07T23:48:45.883Z,150784.73
2019-06-07T23:51:15.534Z,150784.73
2019-06-07T23:53:44.197Z,150791.09
2019-06-07T23:56:13.704Z,150793.61
2019-06-07T23:58:42.430Z,150797.44
